createdAt,value
2018-11-25T00:00:27.557Z,73.90
2018-11-25T00:02:56.474Z,73.70
2018-11-25T00:05:25.415Z,73.11
2018-11-25T00:07:54.319Z,73.25
2018-11-25T00:10:23.270Z,73.85
2018-11-25T00:12:52.246Z,73.25
2018-11-25T00:15:21.222Z,73.34
2018-11-25T00:17:50.138Z,73.37
2018-11-25T00:20:19.082Z,73.64
2018-11-25T00:22:48.009Z,73.87
2018-11-25T00:25:16.949Z,74.51
2018-11-25T00:27:45.872Z,74.30
2018-11-25T00:30:15.773Z,74.01
2018-11-25T00:32:44.944Z,74.14
2018-11-25T00:35:14.997Z,74.49
2018-11-25T00:37:48.260Z,74.76
2018-11-25T00:40:13.868Z,74.55
2018-11-25T00:42:43.175Z,74.26
2018-11-25T00:45:19.930Z,74.25
2018-11-25T00:47:49.549Z,74.81
2018-11-25T00:50:18.495Z,73.97
2018-11-25T00:52:47.418Z,74.11
2018-11-25T00:55:17.120Z,73.46
2018-11-25T00:57:46.075Z,73.59
2018-11-25T01:00:17.679Z,73.41
2018-11-25T01:02:47.305Z,73.57
2018-11-25T01:05:16.222Z,73.42
2018-11-25T01:07:45.192Z,73.84
2018-11-25T01:10:15.047Z,73.50
2018-11-25T01:12:44.162Z,73.34
2018-11-25T01:15:14.035Z,73.54
2018-11-25T01:17:43.000Z,73.71
2018-11-25T01:20:14.234Z,74.62
2018-11-25T01:22:43.160Z,73.95
2018-11-25T01:25:12.180Z,73.21
2018-11-25T01:27:41.099Z,73.45
2018-11-25T01:30:12.161Z,73.18
2018-11-25T01:32:41.127Z,73.86
2018-11-25T01:35:10.829Z,72.85
2018-11-25T01:37:39.809Z,72.53
2018-11-25T01:40:16.694Z,73.80
2018-11-25T01:42:45.768Z,73.31
2018-11-25T01:45:15.621Z,73.21
2018-11-25T01:47:44.617Z,72.49
2018-11-25T01:50:14.606Z,73.19
2018-11-25T01:52:43.542Z,73.11
2018-11-25T01:55:14.126Z,72.49
2018-11-25T01:57:43.069Z,72.91
2018-11-25T02:00:13.171Z,72.69
2018-11-25T02:02:42.162Z,73.53
2018-11-25T02:05:11.082Z,72.99
2018-11-25T02:07:40.039Z,73.40
2018-11-25T02:10:14.017Z,73.51
2018-11-25T02:12:42.947Z,74.01
2018-11-25T02:15:12.883Z,74.17
2018-11-25T02:17:41.815Z,74.93
2018-11-25T02:20:16.731Z,75.50
2018-11-25T02:22:45.690Z,74.33
2018-11-25T02:25:14.598Z,75.87
2018-11-25T02:27:43.607Z,76.06
2018-11-25T02:30:14.162Z,75.26
2018-11-25T02:32:43.101Z,75.31
2018-11-25T02:35:12.778Z,75.08
2018-11-25T02:37:41.693Z,75.83
2018-11-25T02:40:14.531Z,75.52
2018-11-25T02:42:43.463Z,75.87
2018-11-25T02:45:16.226Z,75.74
2018-11-25T02:47:45.147Z,75.62
2018-11-25T02:50:23.219Z,75.82
2018-11-25T02:52:52.202Z,77.17
2018-11-25T02:55:22.173Z,76.14
2018-11-25T02:57:51.147Z,76.15
2018-11-25T03:00:20.102Z,76.01
2018-11-25T03:02:49.065Z,76.72
2018-11-25T03:05:18.015Z,76.23
2018-11-25T03:07:46.937Z,76.84
2018-11-25T03:10:15.894Z,75.72
2018-11-25T03:12:44.815Z,75.28
2018-11-25T03:15:17.631Z,76.43
2018-11-25T03:17:46.586Z,75.87
2018-11-25T03:20:16.418Z,74.64
2018-11-25T03:22:45.340Z,74.51
2018-11-25T03:25:16.154Z,74.80
2018-11-25T03:27:45.097Z,75.35
2018-11-25T03:30:15.782Z,75.01
2018-11-25T03:32:45.439Z,75.49
2018-11-25T03:35:14.602Z,75.27
2018-11-25T03:37:43.519Z,75.50
2018-11-25T03:40:13.475Z,75.14
2018-11-25T03:42:42.386Z,74.34
2018-11-25T03:45:15.461Z,74.31
2018-11-25T03:47:44.381Z,74.34
2018-11-25T03:50:13.918Z,74.21
2018-11-25T03:52:42.846Z,74.95
2018-11-25T03:55:13.704Z,75.07
2018-11-25T03:57:42.612Z,74.82
2018-11-25T04:00:15.532Z,74.43
2018-11-25T04:02:44.446Z,75.11
2018-11-25T04:05:14.450Z,75.25
2018-11-25T04:07:43.354Z,74.31
2018-11-25T04:10:14.070Z,74.86
2018-11-25T04:12:43.031Z,75.27
2018-11-25T04:15:13.728Z,75.47
2018-11-25T04:17:42.708Z,75.81
2018-11-25T04:20:18.449Z,75.36
2018-11-25T04:22:47.529Z,74.98
2018-11-25T04:25:16.450Z,74.65
2018-11-25T04:27:45.402Z,75.54
2018-11-25T04:30:17.894Z,75.37
2018-11-25T04:32:47.778Z,75.29
2018-11-25T04:35:16.729Z,75.31
2018-11-25T04:37:45.684Z,75.88
2018-11-25T04:40:15.505Z,75.05
2018-11-25T04:42:44.445Z,76.20
2018-11-25T04:45:14.388Z,76.54
2018-11-25T04:47:43.499Z,75.74
2018-11-25T04:50:13.906Z,76.10
2018-11-25T04:52:42.843Z,76.04
2018-11-25T04:55:11.762Z,75.80
2018-11-25T04:57:40.714Z,75.64
2018-11-25T05:00:11.826Z,75.75
2018-11-25T05:02:41.570Z,75.40
2018-11-25T05:05:11.562Z,76.07
2018-11-25T05:07:40.514Z,76.11
2018-11-25T05:10:16.909Z,76.11
2018-11-25T05:12:45.860Z,75.78
2018-11-25T05:15:17.754Z,75.51
2018-11-25T05:17:46.703Z,76.22
2018-11-25T05:20:16.302Z,76.72
2018-11-25T05:22:45.255Z,76.88
2018-11-25T05:25:16.190Z,76.68
2018-11-25T05:27:45.126Z,76.67
2018-11-25T05:30:17.026Z,76.20
2018-11-25T05:32:46.002Z,76.06
2018-11-25T05:35:17.986Z,76.80
2018-11-25T05:37:46.910Z,75.81
2018-11-25T05:40:16.439Z,76.15
2018-11-25T05:42:45.473Z,76.72
2018-11-25T05:45:15.490Z,75.33
2018-11-25T05:47:44.448Z,75.20
2018-11-25T05:50:15.293Z,74.87
2018-11-25T05:52:44.284Z,74.60
2018-11-25T05:55:13.385Z,75.22
2018-11-25T05:57:42.451Z,75.28
2018-11-25T06:00:28.559Z,75.78
2018-11-25T06:02:57.491Z,74.91
2018-11-25T06:05:26.409Z,75.45
2018-11-25T06:07:55.342Z,75.28
2018-11-25T06:10:24.489Z,75.47
2018-11-25T06:12:53.788Z,75.27
2018-11-25T06:15:22.723Z,74.63
2018-11-25T06:17:51.654Z,75.70
2018-11-25T06:20:20.574Z,75.27
2018-11-25T06:22:49.522Z,75.38
2018-11-25T06:25:20.355Z,75.22
2018-11-25T06:27:49.305Z,74.33
2018-11-25T06:30:19.067Z,74.72
2018-11-25T06:32:48.039Z,75.12
2018-11-25T06:35:17.939Z,75.53
2018-11-25T06:37:46.887Z,75.58
2018-11-25T06:40:19.763Z,74.59
2018-11-25T06:42:48.783Z,75.65
2018-11-25T06:45:19.135Z,74.16
2018-11-25T06:47:48.076Z,73.95
2018-11-25T06:50:17.045Z,74.72
2018-11-25T06:52:45.955Z,75.03
2018-11-25T06:55:14.907Z,73.88
2018-11-25T06:57:43.831Z,73.38
2018-11-25T07:00:14.963Z,74.11
2018-11-25T07:02:43.901Z,74.79
2018-11-25T07:05:12.838Z,75.15
2018-11-25T07:07:41.762Z,75.16
2018-11-25T07:10:17.561Z,75.85
2018-11-25T07:12:46.907Z,75.24
2018-11-25T07:15:17.087Z,75.87
2018-11-25T07:17:46.065Z,75.33
2018-11-25T07:20:17.849Z,75.45
2018-11-25T07:22:46.763Z,75.31
2018-11-25T07:25:19.622Z,75.34
2018-11-25T07:27:48.548Z,74.99
2018-11-25T07:30:21.698Z,74.83
2018-11-25T07:32:50.624Z,73.85
2018-11-25T07:35:19.570Z,75.04
2018-11-25T07:37:48.503Z,75.15
2018-11-25T07:40:18.498Z,75.62
2018-11-25T07:42:47.449Z,73.88
2018-11-25T07:45:17.491Z,75.33
2018-11-25T07:47:46.391Z,74.60
2018-11-25T07:50:15.371Z,75.27
2018-11-25T07:52:45.355Z,75.84
2018-11-25T07:55:15.500Z,75.34
2018-11-25T07:57:44.527Z,74.89
2018-11-25T08:00:16.563Z,73.59
2018-11-25T08:02:45.591Z,74.91
2018-11-25T08:05:16.602Z,75.45
2018-11-25T08:07:45.903Z,74.66
2018-11-25T08:10:15.578Z,75.38
2018-11-25T08:12:45.050Z,74.75
2018-11-25T08:15:15.719Z,74.74
2018-11-25T08:17:45.450Z,74.00
2018-11-25T08:20:15.543Z,74.48
2018-11-25T08:22:44.490Z,75.38
2018-11-25T08:25:15.337Z,74.92
2018-11-25T08:27:44.238Z,74.34
2018-11-25T08:30:15.197Z,75.41
2018-11-25T08:32:44.142Z,75.46
2018-11-25T08:35:14.112Z,75.31
2018-11-25T08:37:43.470Z,75.38
2018-11-25T08:40:28.174Z,75.34
2018-11-25T08:42:57.090Z,75.01
2018-11-25T08:45:26.054Z,75.00
2018-11-25T08:47:54.969Z,75.13
2018-11-25T08:50:23.927Z,75.18
2018-11-25T08:52:53.510Z,74.73
2018-11-25T08:55:24.051Z,74.36
2018-11-25T08:57:54.082Z,74.36
2018-11-25T09:00:24.008Z,74.27
2018-11-25T09:02:54.079Z,74.31
2018-11-25T09:05:23.005Z,74.46
2018-11-25T09:07:51.948Z,73.91
2018-11-25T09:10:21.716Z,73.92
2018-11-25T09:12:55.844Z,73.35
2018-11-25T09:15:25.355Z,73.34
2018-11-25T09:17:54.279Z,73.37
2018-11-25T09:20:23.262Z,73.82
2018-11-25T09:22:52.756Z,73.66
2018-11-25T09:25:22.979Z,74.75
2018-11-25T09:27:52.053Z,74.10
2018-11-25T09:30:22.202Z,73.87
2018-11-25T09:32:51.056Z,73.48
2018-11-25T09:35:20.004Z,73.71
2018-11-25T09:37:48.958Z,74.27
2018-11-25T09:40:20.863Z,73.65
2018-11-25T09:42:49.794Z,73.97
2018-11-25T09:45:19.634Z,74.58
2018-11-25T09:47:48.770Z,74.24
2018-11-25T09:50:19.592Z,74.87
2018-11-25T09:52:48.547Z,74.13
2018-11-25T09:55:18.590Z,74.23
2018-11-25T09:57:51.569Z,74.20
2018-11-25T10:00:25.601Z,73.71
2018-11-25T10:02:55.558Z,74.56
2018-11-25T10:05:24.502Z,74.22
2018-11-25T10:07:53.454Z,74.68
2018-11-25T10:10:23.391Z,75.26
2018-11-25T10:12:52.506Z,74.59
2018-11-25T10:15:22.500Z,74.71
2018-11-25T10:17:59.044Z,74.25
2018-11-25T10:20:23.445Z,74.39
2018-11-25T10:22:52.379Z,74.29
2018-11-25T10:25:21.318Z,74.34
2018-11-25T10:27:50.269Z,74.56
2018-11-25T10:30:21.994Z,74.26
2018-11-25T10:32:52.979Z,74.82
2018-11-25T10:35:21.925Z,74.93
2018-11-25T10:37:50.873Z,74.81
2018-11-25T10:40:21.031Z,74.41
2018-11-25T10:42:49.992Z,74.59
2018-11-25T10:45:24.875Z,75.25
2018-11-25T10:47:53.939Z,75.34
2018-11-25T10:50:23.007Z,75.90
2018-11-25T10:52:52.025Z,76.39
2018-11-25T10:55:21.763Z,74.84
2018-11-25T10:57:52.446Z,75.57
2018-11-25T11:00:33.398Z,75.67
2018-11-25T11:03:07.680Z,75.86
2018-11-25T11:05:41.885Z,75.58
2018-11-25T11:08:11.008Z,75.50
2018-11-25T11:10:39.973Z,76.49
2018-11-25T11:13:09.131Z,76.75
2018-11-25T11:15:38.111Z,76.77
2018-11-25T11:18:07.918Z,76.47
2018-11-25T11:20:36.842Z,77.04
2018-11-25T11:23:06.138Z,75.79
2018-11-25T11:25:35.118Z,76.76
2018-11-25T11:28:04.066Z,76.18
2018-11-25T11:30:33.043Z,76.61
2018-11-25T11:33:02.182Z,76.47
2018-11-25T11:35:31.293Z,76.37
2018-11-25T11:38:00.265Z,77.04
2018-11-25T11:40:29.230Z,77.97
2018-11-25T11:42:58.301Z,77.65
2018-11-25T11:45:27.255Z,76.86
2018-11-25T11:47:56.238Z,77.11
2018-11-25T11:50:25.251Z,77.00
2018-11-25T11:52:54.203Z,76.17
2018-11-25T11:55:23.129Z,75.49
2018-11-25T11:57:52.107Z,76.32
2018-11-25T12:00:25.507Z,76.36
2018-11-25T12:02:54.494Z,75.58
2018-11-25T12:05:23.406Z,75.62
2018-11-25T12:07:52.346Z,74.92
2018-11-25T12:10:21.443Z,75.46
2018-11-25T12:12:50.891Z,75.06
2018-11-25T12:15:29.958Z,75.92
2018-11-25T12:17:52.178Z,75.34
2018-11-25T12:20:21.664Z,75.76
2018-11-25T12:22:51.363Z,76.06
2018-11-25T12:25:20.319Z,75.67
2018-11-25T12:27:49.283Z,76.14
2018-11-25T12:30:18.236Z,77.33
2018-11-25T12:32:49.523Z,77.62
2018-11-25T12:35:18.568Z,77.14
2018-11-25T12:37:47.579Z,77.82
2018-11-25T12:40:19.625Z,77.18
2018-11-25T12:42:50.763Z,78.15
2018-11-25T12:45:19.788Z,77.04
2018-11-25T12:47:48.969Z,78.13
2018-11-25T12:50:20.071Z,76.79
2018-11-25T12:52:49.030Z,77.40
2018-11-25T12:55:19.032Z,76.79
2018-11-25T12:57:48.300Z,76.29
2018-11-25T13:00:21.870Z,77.33
2018-11-25T13:02:50.786Z,75.84
2018-11-25T13:05:19.771Z,76.44
2018-11-25T13:07:48.702Z,76.26
2018-11-25T13:10:17.815Z,75.49
2018-11-25T13:12:46.770Z,75.88
2018-11-25T13:15:15.827Z,76.47
2018-11-25T13:17:44.783Z,76.12
2018-11-25T13:20:14.995Z,76.44
2018-11-25T13:22:44.005Z,77.28
2018-11-25T13:25:14.071Z,77.89
2018-11-25T13:27:43.010Z,77.84
2018-11-25T13:30:22.184Z,77.92
2018-11-25T13:32:52.501Z,77.32
2018-11-25T13:35:21.562Z,77.83
2018-11-25T13:37:50.483Z,78.66
2018-11-25T13:40:19.413Z,77.70
2018-11-25T13:42:48.357Z,77.88
2018-11-25T13:45:17.358Z,78.44
2018-11-25T13:47:46.320Z,78.46
2018-11-25T13:50:15.235Z,77.77
2018-11-25T13:52:44.223Z,78.22
2018-11-25T13:55:16.537Z,77.42
2018-11-25T13:57:45.497Z,78.26
2018-11-25T14:00:41.294Z,76.99
2018-11-25T14:03:12.468Z,77.73
2018-11-25T14:05:41.393Z,78.78
2018-11-25T14:08:10.332Z,78.92
2018-11-25T14:10:39.283Z,79.22
2018-11-25T14:13:08.319Z,77.64
2018-11-25T14:15:37.318Z,78.33
2018-11-25T14:18:06.942Z,78.13
2018-11-25T14:20:35.895Z,78.37
2018-11-25T14:23:04.886Z,78.29
2018-11-25T14:25:33.838Z,78.25
2018-11-25T14:28:06.495Z,78.61
2018-11-25T14:30:35.535Z,78.44
2018-11-25T14:33:04.476Z,78.00
2018-11-25T14:35:33.407Z,79.07
2018-11-25T14:38:02.354Z,78.25
2018-11-25T14:40:31.291Z,78.98
2018-11-25T14:43:00.240Z,78.82
2018-11-25T14:45:29.741Z,79.16
2018-11-25T14:47:59.421Z,78.93
2018-11-25T14:50:29.170Z,78.82
2018-11-25T14:52:58.757Z,79.53
2018-11-25T14:55:28.448Z,78.88
2018-11-25T14:57:59.154Z,79.06
2018-11-25T15:00:29.021Z,79.07
2018-11-25T15:03:00.053Z,79.56
2018-11-25T15:05:32.259Z,79.19
2018-11-25T15:08:01.829Z,79.58
2018-11-25T15:10:31.342Z,80.20
2018-11-25T15:13:01.003Z,80.13
2018-11-25T15:15:30.738Z,79.65
2018-11-25T15:18:00.466Z,79.73
2018-11-25T15:20:29.935Z,79.04
2018-11-25T15:23:00.730Z,79.51
2018-11-25T15:25:31.818Z,79.71
2018-11-25T15:28:01.778Z,79.09
2018-11-25T15:30:30.825Z,78.99
2018-11-25T15:32:59.886Z,79.12
2018-11-25T15:35:28.819Z,79.06
2018-11-25T15:37:57.781Z,78.43
2018-11-25T15:40:32.046Z,79.41
2018-11-25T15:43:01.076Z,78.50
2018-11-25T15:45:30.026Z,79.54
2018-11-25T15:48:03.211Z,79.51
2018-11-25T15:50:32.539Z,79.36
2018-11-25T15:53:01.485Z,78.79
2018-11-25T15:55:30.483Z,79.05
2018-11-25T15:57:59.744Z,79.01
2018-11-25T16:00:28.830Z,78.43
2018-11-25T16:02:57.749Z,79.09
2018-11-25T16:05:29.241Z,78.66
2018-11-25T16:07:58.284Z,79.63
2018-11-25T16:10:27.256Z,79.54
2018-11-25T16:12:56.210Z,79.14
2018-11-25T16:15:26.638Z,78.81
2018-11-25T16:17:55.575Z,80.40
2018-11-25T16:20:26.939Z,79.78
2018-11-25T16:22:57.470Z,80.22
2018-11-25T16:25:30.096Z,79.77
2018-11-25T16:28:37.148Z,80.00
2018-11-25T16:31:06.347Z,80.35
2018-11-25T16:33:35.270Z,79.74
2018-11-25T16:36:04.244Z,79.11
2018-11-25T16:38:33.179Z,79.32
2018-11-25T16:41:02.132Z,79.21
2018-11-25T16:43:31.106Z,78.90
2018-11-25T16:46:00.075Z,79.49
2018-11-25T16:48:29.014Z,78.50
2018-11-25T16:50:58.000Z,79.06
2018-11-25T16:53:26.931Z,79.85
2018-11-25T16:55:56.322Z,79.83
2018-11-25T16:58:25.282Z,78.62
2018-11-25T17:00:54.419Z,79.06
2018-11-25T17:03:23.363Z,79.68
2018-11-25T17:05:53.192Z,79.37
2018-11-25T17:08:31.203Z,79.94
2018-11-25T17:11:00.176Z,80.20
2018-11-25T17:13:29.100Z,80.57
2018-11-25T17:15:58.043Z,79.93
2018-11-25T17:18:26.969Z,79.88
2018-11-25T17:20:55.921Z,78.67
2018-11-25T17:23:24.850Z,79.53
2018-11-25T17:25:53.835Z,79.86
2018-11-25T17:28:25.696Z,79.62
2018-11-25T17:30:54.670Z,80.22
2018-11-25T17:33:23.657Z,78.86
2018-11-25T17:35:52.666Z,79.32
2018-11-25T17:38:21.864Z,78.99
2018-11-25T17:40:50.804Z,79.65
2018-11-25T17:43:21.506Z,78.33
2018-11-25T17:45:50.470Z,79.44
2018-11-25T17:48:19.498Z,78.79
2018-11-25T17:50:48.453Z,79.00
2018-11-25T17:53:20.800Z,78.67
2018-11-25T17:55:46.849Z,79.49
2018-11-25T17:58:15.845Z,79.47
2018-11-25T18:00:48.150Z,78.93
2018-11-25T18:03:23.696Z,78.53
2018-11-25T18:05:52.690Z,79.34
2018-11-25T18:08:21.627Z,80.03
2018-11-25T18:10:50.729Z,78.76
2018-11-25T18:13:21.186Z,80.23
2018-11-25T18:15:50.925Z,80.58
2018-11-25T18:18:27.980Z,80.14
2018-11-25T18:20:59.138Z,79.48
2018-11-25T18:23:28.083Z,79.58
2018-11-25T18:25:57.038Z,79.14
2018-11-25T18:28:26.064Z,79.18
2018-11-25T18:30:55.126Z,79.27
2018-11-25T18:33:24.530Z,78.14
2018-11-25T18:35:53.534Z,77.66
2018-11-25T18:38:22.509Z,77.21
2018-11-25T18:40:51.931Z,76.54
2018-11-25T18:43:20.881Z,76.80
2018-11-25T18:45:49.811Z,76.17
2018-11-25T18:48:18.891Z,75.42
2018-11-25T18:50:47.843Z,75.11
2018-11-25T18:53:16.831Z,76.03
2018-11-25T18:55:44.741Z,76.19
2018-11-25T18:58:13.803Z,76.39
2018-11-25T19:00:54.366Z,75.68
2018-11-25T19:03:23.816Z,75.83
2018-11-25T19:05:52.902Z,76.35
2018-11-25T19:08:21.874Z,77.25
2018-11-25T19:10:50.835Z,77.88
2018-11-25T19:13:19.811Z,78.28
2018-11-25T19:15:48.844Z,78.29
2018-11-25T19:18:17.873Z,78.28
2018-11-25T19:20:46.824Z,77.60
2018-11-25T19:23:15.954Z,77.63
2018-11-25T19:25:45.011Z,77.87
2018-11-25T19:28:14.431Z,78.37
2018-11-25T19:30:43.446Z,79.10
2018-11-25T19:33:12.546Z,78.89
2018-11-25T19:35:41.507Z,78.68
2018-11-25T19:38:10.617Z,78.54
2018-11-25T19:40:39.635Z,78.62
2018-11-25T19:43:09.076Z,78.60
2018-11-25T19:45:38.195Z,78.61
2018-11-25T19:48:07.350Z,77.71
2018-11-25T19:50:37.801Z,78.07
2018-11-25T19:53:08.855Z,77.98
2018-11-25T19:55:38.676Z,77.84
2018-11-25T19:58:07.886Z,77.35
2018-11-25T20:00:36.907Z,78.09
2018-11-25T20:03:06.464Z,77.88
2018-11-25T20:05:35.462Z,77.36
2018-11-25T20:08:04.487Z,78.30
2018-11-25T20:10:33.451Z,79.18
2018-11-25T20:13:02.439Z,78.57
2018-11-25T20:15:31.493Z,78.90
2018-11-25T20:18:01.195Z,79.12
2018-11-25T20:20:30.308Z,79.04
2018-11-25T20:22:59.376Z,78.61
2018-11-25T20:25:28.384Z,77.75
2018-11-25T20:27:57.947Z,78.04
2018-11-25T20:30:28.238Z,78.93
2018-11-25T20:33:02.433Z,77.61
2018-11-25T20:35:31.362Z,77.23
2018-11-25T20:38:05.677Z,77.41
2018-11-25T20:40:34.614Z,77.02
2018-11-25T20:43:03.565Z,76.94
2018-11-25T20:45:39.124Z,77.67
2018-11-25T20:48:06.965Z,78.01
2018-11-25T20:50:35.927Z,77.86
2018-11-25T20:53:10.523Z,78.20
2018-11-25T20:55:39.563Z,78.81
2018-11-25T20:58:09.271Z,78.83
2018-11-25T21:02:51.822Z,78.61
2018-11-25T21:05:20.870Z,79.14
2018-11-25T21:07:50.667Z,78.70
2018-11-25T21:10:20.463Z,79.41
2018-11-25T21:12:51.386Z,79.52
2018-11-25T21:15:20.432Z,79.32
2018-11-25T21:17:49.415Z,79.11
2018-11-25T21:20:21.898Z,78.68
2018-11-25T21:22:50.838Z,79.87
2018-11-25T21:25:20.849Z,79.62
2018-11-25T21:27:49.832Z,80.34
2018-11-25T21:30:23.211Z,80.16
2018-11-25T21:32:53.799Z,79.73
2018-11-25T21:35:22.808Z,79.95
2018-11-25T21:37:51.746Z,79.79
2018-11-25T21:40:21.736Z,78.76
2018-11-25T21:42:50.751Z,79.48
2018-11-25T21:45:20.618Z,79.29
2018-11-25T21:47:49.754Z,78.96
2018-11-25T21:50:21.338Z,79.58
2018-11-25T21:52:50.319Z,79.22
2018-11-25T21:55:19.563Z,79.26
2018-11-25T21:57:48.486Z,79.12
2018-11-25T22:00:18.904Z,79.40
2018-11-25T22:02:47.859Z,79.11
2018-11-25T22:05:16.965Z,79.72
2018-11-25T22:07:45.895Z,79.74
2018-11-25T22:10:16.804Z,79.10
2018-11-25T22:12:46.147Z,79.86
2018-11-25T22:15:17.291Z,79.87
2018-11-25T22:17:46.263Z,80.20
2018-11-25T22:20:15.835Z,79.82
2018-11-25T22:22:44.759Z,80.27
2018-11-25T22:25:14.710Z,80.42
2018-11-25T22:27:43.670Z,79.35
2018-11-25T22:30:15.439Z,79.82
2018-11-25T22:32:44.377Z,79.44
2018-11-25T22:35:14.282Z,79.81
2018-11-25T22:37:43.211Z,79.75
2018-11-25T22:40:12.986Z,79.31
2018-11-25T22:42:42.702Z,78.91
2018-11-25T22:45:13.694Z,78.82
2018-11-25T22:47:42.694Z,78.91
2018-11-25T22:50:14.532Z,78.55
2018-11-25T22:52:43.602Z,78.46
2018-11-25T22:55:27.650Z,78.51
2018-11-25T22:57:56.584Z,79.29
2018-11-25T23:00:31.050Z,79.89
2018-11-25T23:02:59.994Z,79.13
2018-11-25T23:06:40.288Z,78.95
2018-11-25T23:09:09.226Z,79.23
2018-11-25T23:11:38.238Z,79.28
2018-11-25T23:14:07.228Z,78.44
2018-11-25T23:16:36.209Z,78.99
2018-11-25T23:19:06.723Z,78.52
2018-11-25T23:21:35.723Z,79.37
2018-11-25T23:24:04.696Z,78.81
2018-11-25T23:26:33.678Z,79.25
2018-11-25T23:29:02.624Z,78.78
2018-11-25T23:31:31.573Z,78.58
2018-11-25T23:34:00.482Z,78.57
2018-11-25T23:36:29.431Z,78.28
2018-11-25T23:38:58.351Z,78.72
2018-11-25T23:41:27.318Z,78.11
2018-11-25T23:43:56.251Z,78.84
2018-11-25T23:46:25.183Z,78.21
2018-11-25T23:48:54.105Z,78.53
2018-11-25T23:51:23.043Z,79.03
2018-11-25T23:53:51.982Z,78.74
2018-11-25T23:56:20.932Z,78.84
2018-11-25T23:58:49.855Z,78.25
